Time;durP1;ratioP1;P1;durP2;ratioP2;P2;SDS_P1;SDS_P2;PMS_P1;PMS_P2;Temp;Humidity;BMP_temperature;BMP_pressure;BME280_temperature;BME280_humidity;BME280_pressure;Samples;Min_cycle;Max_cycle;Signal;HPM_P1;HPM_P2
2019/04/30 00:01:08;;;;;;;1.4;0.9;;;;;;;23.4;32.13672;1005.942;;;;
2019/04/30 00:03:30;;;;;;;0.9;0.7;;;;;;;23.41;32.1377;1005.971;;;;
2019/04/30 00:05:55;;;;;;;1.4;0.9;;;;;;;23.4;32.14844;1005.955;;;;
2019/04/30 00:08:26;;;;;;;1;0.9;;;;;;;23.39;32.14844;1005.998;;;;
2019/04/30 00:11:09;;;;;;;1.1;0.9;;;;;;;23.41;32.14844;1006.032;;;;
2019/04/30 00:13:42;;;;;;;1;0.9;;;;;;;23.4;32.14844;1006.006;;;;
2019/04/30 00:16:08;;;;;;;1.1;0.8;;;;;;;23.39;32.15918;1005.959;;;;
2019/04/30 00:18:37;;;;;;;1;0.9;;;;;;;23.39;32.15918;1005.918;;;;
2019/04/30 00:21:08;;;;;;;1;0.9;;;;;;;23.38;32.15918;1005.946;;;;
2019/04/30 00:23:38;;;;;;;0.8;0.8;;;;;;;23.36;32.16992;1005.881;;;;
2019/04/30 00:26:09;;;;;;;1.2;0.9;;;;;;;23.36;32.16992;1005.813;;;;
2019/04/30 00:28:40;;;;;;;1.1;0.7;;;;;;;23.37;32.1582;1005.834;;;;
2019/04/30 00:31:11;;;;;;;1.2;0.8;;;;;;;23.36;32.1582;1005.909;;;;
2019/04/30 00:33:41;;;;;;;1.2;0.7;;;;;;;23.38;32.12305;1005.864;;;;
2019/04/30 00:36:12;;;;;;;1.1;0.9;;;;;;;23.37;32.12305;1005.848;;;;
2019/04/30 00:38:42;;;;;;;0.8;0.8;;;;;;;23.37;32.11035;1005.866;;;;
2019/04/30 00:41:13;;;;;;;1;0.8;;;;;;;23.37;32.08691;1005.875;;;;
2019/04/30 00:43:45;;;;;;;0.9;0.8;;;;;;;23.38;32.08887;1005.886;;;;
2019/04/30 00:46:14;;;;;;;1.1;0.8;;;;;;;23.39;32.05371;1005.912;;;;
2019/04/30 00:48:45;;;;;;;1;0.8;;;;;;;23.39;32.03027;1005.902;;;;
2019/04/30 00:51:16;;;;;;;1.3;0.9;;;;;;;23.41;32.01855;1005.922;;;;
2019/04/30 00:53:47;;;;;;;1;0.9;;;;;;;23.42;31.98438;1005.911;;;;
2019/04/30 00:56:17;;;;;;;0.8;0.8;;;;;;;23.42;31.97266;1005.827;;;;
2019/04/30 00:58:48;;;;;;;0.7;0.7;;;;;;;23.43;31.96191;1005.771;;;;
2019/04/30 01:03:52;;;;;;;0.9;0.6;;;;;;;23.43;31.93848;1005.689;;;;
2019/04/30 01:06:19;;;;;;;0.7;0.7;;;;;;;23.43;31.92578;1005.638;;;;
2019/04/30 01:08:50;;;;;;;0.8;0.8;;;;;;;23.44;31.91504;1005.688;;;;
2019/04/30 01:11:23;;;;;;;0.7;0.7;;;;;;;23.44;31.90332;1005.592;;;;
2019/04/30 01:13:51;;;;;;;1;0.8;;;;;;;23.44;31.9043;1005.682;;;;
2019/04/30 01:16:24;;;;;;;2.1;0.9;;;;;;;23.44;31.8916;1005.723;;;;
2019/04/30 01:18:54;;;;;;;1;0.8;;;;;;;23.44;31.8916;1005.736;;;;
2019/04/30 01:21:24;;;;;;;1.4;0.8;;;;;;;23.45;31.86816;1005.649;;;;
2019/04/30 01:23:56;;;;;;;1.3;0.9;;;;;;;23.45;31.84473;1005.657;;;;
2019/04/30 01:26:26;;;;;;;0.9;0.8;;;;;;;23.45;31.86816;1005.608;;;;
2019/04/30 01:28:58;;;;;;;0.8;0.7;;;;;;;23.44;31.85645;1005.637;;;;
2019/04/30 01:31:27;;;;;;;1;0.8;;;;;;;23.45;31.85645;1005.649;;;;
2019/04/30 01:33:57;;;;;;;1.1;0.8;;;;;;;23.45;31.86816;1005.617;;;;
2019/04/30 01:36:27;;;;;;;0.8;0.8;;;;;;;23.44;31.86816;1005.568;;;;
2019/04/30 01:38:58;;;;;;;0.8;0.7;;;;;;;23.44;31.87988;1005.65;;;;
2019/04/30 01:41:29;;;;;;;0.9;0.8;;;;;;;23.44;31.86816;1005.65;;;;
2019/04/30 01:44:01;;;;;;;1;0.9;;;;;;;23.43;31.86719;1005.583;;;;
2019/04/30 01:46:30;;;;;;;1.4;0.8;;;;;;;23.43;31.87891;1005.566;;;;
2019/04/30 01:49:01;;;;;;;0.9;0.7;;;;;;;23.42;31.87793;1005.495;;;;
2019/04/30 01:51:32;;;;;;;1.9;0.8;;;;;;;23.42;31.87793;1005.518;;;;
2019/04/30 01:54:02;;;;;;;0.8;0.7;;;;;;;23.41;31.90137;1005.424;;;;
2019/04/30 01:59:09;;;;;;;0.8;0.8;;;;;;;23.4;31.90039;1005.466;;;;
2019/04/30 02:01:34;;;;;;;1.4;1.1;;;;;;;23.4;31.91211;1005.562;;;;
2019/04/30 02:04:04;;;;;;;0.8;0.8;;;;;;;23.4;31.92383;1005.54;;;;
2019/04/30 02:06:37;;;;;;;0.8;0.8;;;;;;;23.39;31.91211;1005.569;;;;
2019/04/30 02:09:05;;;;;;;0.7;0.7;;;;;;;23.4;31.92383;1005.55;;;;
2019/04/30 02:11:36;;;;;;;1;0.7;;;;;;;23.4;31.91211;1005.581;;;;
2019/04/30 02:14:07;;;;;;;0.8;0.8;;;;;;;23.39;31.91113;1005.507;;;;
2019/04/30 02:16:37;;;;;;;1.2;0.8;;;;;;;23.39;31.92285;1005.452;;;;
2019/04/30 02:19:08;;;;;;;1.2;1;;;;;;;23.38;31.94629;1005.499;;;;
2019/04/30 02:21:40;;;;;;;0.8;0.7;;;;;;;23.38;31.96973;1005.453;;;;
2019/04/30 02:24:09;;;;;;;0.9;0.7;;;;;;;23.38;31.96973;1005.504;;;;
2019/04/30 02:26:39;;;;;;;0.9;0.8;;;;;;;23.38;31.96973;1005.463;;;;
2019/04/30 02:29:10;;;;;;;1.5;0.9;;;;;;;23.37;31.95801;1005.473;;;;
2019/04/30 02:31:41;;;;;;;0.8;0.8;;;;;;;23.36;31.98047;1005.443;;;;
2019/04/30 02:34:19;;;;;;;1.2;1;;;;;;;23.36;31.96875;1005.472;;;;
2019/04/30 02:36:52;;;;;;;0.8;0.8;;;;;;;23.36;31.98047;1005.466;;;;
2019/04/30 02:39:15;;;;;;;1.2;0.8;;;;;;;23.36;31.98047;1005.453;;;;
2019/04/30 02:41:46;;;;;;;1;0.9;;;;;;;23.36;31.99219;1005.431;;;;
2019/04/30 02:44:17;;;;;;;1.1;0.8;;;;;;;23.34;32.01465;1005.443;;;;
2019/04/30 02:46:47;;;;;;;0.8;0.8;;;;;;;23.33;32.01465;1005.38;;;;
2019/04/30 02:49:20;;;;;;;0.7;0.7;;;;;;;23.34;32.01465;1005.467;;;;
2019/04/30 02:51:52;;;;;;;0.9;0.7;;;;;;;23.33;32.03711;1005.382;;;;
2019/04/30 02:54:26;;;;;;;0.9;0.8;;;;;;;23.33;32.04883;1005.386;;;;
2019/04/30 02:57:12;;;;;;;0.7;0.7;;;;;;;23.32;32.04883;1005.351;;;;
2019/04/30 02:59:24;;;;;;;0.8;0.8;;;;;;;23.33;32.03711;1005.359;;;;
2019/04/30 03:01:55;;;;;;;0.8;0.8;;;;;;;23.33;32.03711;1005.396;;;;
2019/04/30 03:04:27;;;;;;;1;0.8;;;;;;;23.32;32.04883;1005.364;;;;
2019/04/30 03:06:56;;;;;;;1;0.9;;;;;;;23.31;32.05957;1005.326;;;;
2019/04/30 03:09:28;;;;;;;0.8;0.8;;;;;;;23.3;32.09473;1005.346;;;;
2019/04/30 03:11:57;;;;;;;0.9;0.8;;;;;;;23.31;32.08398;1005.266;;;;
2019/04/30 03:14:28;;;;;;;0.8;0.8;;;;;;;23.3;32.09473;1005.277;;;;
2019/04/30 03:17:18;;;;;;;1.4;1.1;;;;;;;23.31;32.0957;1005.28;;;;
2019/04/30 03:19:43;;;;;;;1.1;0.8;;;;;;;23.3;32.09473;1005.26;;;;
2019/04/30 03:22:12;;;;;;;1;0.9;;;;;;;23.3;32.11719;1005.296;;;;
2019/04/30 03:24:37;;;;;;;1.3;1.1;;;;;;;23.3;32.10547;1005.306;;;;
2019/04/30 03:27:08;;;;;;;1;0.8;;;;;;;23.28;32.15234;1005.337;;;;
2019/04/30 03:29:39;;;;;;;1;0.9;;;;;;;23.29;32.14063;1005.331;;;;
2019/04/30 03:32:10;;;;;;;0.8;0.8;;;;;;;23.29;32.14063;1005.308;;;;
2019/04/30 03:34:39;;;;;;;0.8;0.8;;;;;;;23.29;32.15332;1005.325;;;;
2019/04/30 03:37:10;;;;;;;1;0.8;;;;;;;23.28;32.16406;1005.296;;;;
2019/04/30 03:39:41;;;;;;;1.3;1;;;;;;;23.29;32.16406;1005.29;;;;
2019/04/30 03:42:11;;;;;;;0.9;0.9;;;;;;;23.3;32.15332;1005.351;;;;
2019/04/30 03:44:42;;;;;;;0.9;0.9;;;;;;;23.31;32.15332;1005.323;;;;
2019/04/30 03:47:12;;;;;;;1.1;1;;;;;;;23.32;32.14258;1005.297;;;;
2019/04/30 03:49:43;;;;;;;1.1;1;;;;;;;23.31;32.13086;1005.293;;;;
2019/04/30 03:52:14;;;;;;;1.3;1;;;;;;;23.32;32.14258;1005.302;;;;
2019/04/30 03:54:39;;;;;;;1;0.9;;;;;;;23.32;32.14258;1005.284;;;;
2019/04/30 03:57:12;;;;;;;1.1;1;;;;;;;23.32;32.13086;1005.305;;;;
2019/04/30 03:59:40;;;;;;;0.8;0.8;;;;;;;23.33;32.13086;1005.3;;;;
